Terminal Aerodrome Forecast
Issued by NWS

Home | Current Version | Previous Version | Text Only | Print | Product List | Glossary On
Versions: 1 2 3 4 5 6 7 8 9 10 11 12 13 14 15 16 17 18 19 20 21 22 23 24
745
FTUS46 KSEW 080520
TAFSEA
TAF
KSEA 080520Z 0806/0912 02005KT P6SM SCT050 SCT080 SCT200
     FM080900 02005KT P6SM SCT200
     FM081200 04005KT P6SM FEW010 SCT200
      TEMPO 0812/0816 4SM BR SCT005 BKN250
     FM082000 01007KT P6SM SCT250=

USA.gov is the U.S. government's official web portal to all federal, state and local government web resources and services.